sensor_id;sensor_type;location;lat;lon;timestamp;pressure;altitude;pressure_sealevel;temperature;humidity
11987;BME280;6053;51.382;6.768;2023-04-05T00:01:33;102036.00;;;10.44;64.26
11987;BME280;6053;51.382;6.768;2023-04-05T00:04:02;102031.16;;;10.46;64.15
11987;BME280;6053;51.382;6.768;2023-04-05T00:06:31;102026.88;;;10.44;64.32
11987;BME280;6053;51.382;6.768;2023-04-05T00:09:01;102026.66;;;10.45;64.25
11987;BME280;6053;51.382;6.768;2023-04-05T00:14:00;102019.19;;;10.39;64.24
11987;BME280;6053;51.382;6.768;2023-04-05T00:16:31;102018.16;;;10.40;64.43
11987;BME280;6053;51.382;6.768;2023-04-05T00:19:00;102016.81;;;10.36;64.54
11987;BME280;6053;51.382;6.768;2023-04-05T00:21:28;102018.94;;;10.34;64.61
11987;BME280;6053;51.382;6.768;2023-04-05T00:23:58;102020.84;;;10.33;64.47
11987;BME280;6053;51.382;6.768;2023-04-05T00:26:26;102020.19;;;10.31;64.54
11987;BME280;6053;51.382;6.768;2023-04-05T00:28:55;102024.41;;;10.27;64.74
11987;BME280;6053;51.382;6.768;2023-04-05T00:31:23;102019.25;;;10.24;65.03
11987;BME280;6053;51.382;6.768;2023-04-05T00:33:53;102015.06;;;10.28;64.80
11987;BME280;6053;51.382;6.768;2023-04-05T00:36:22;102012.53;;;10.27;64.71
11987;BME280;6053;51.382;6.768;2023-04-05T00:38:51;102015.72;;;10.09;63.18
11987;BME280;6053;51.382;6.768;2023-04-05T00:41:20;102011.16;;;10.23;65.06
11987;BME280;6053;51.382;6.768;2023-04-05T00:43:49;102008.22;;;10.24;64.46
11987;BME280;6053;51.382;6.768;2023-04-05T00:46:18;102003.50;;;10.18;64.76
11987;BME280;6053;51.382;6.768;2023-04-05T00:48:47;102007.31;;;10.17;64.77
11987;BME280;6053;51.382;6.768;2023-04-05T00:51:18;102007.50;;;10.15;64.81
11987;BME280;6053;51.382;6.768;2023-04-05T00:53:47;102005.81;;;10.14;64.78
11987;BME280;6053;51.382;6.768;2023-04-05T00:56:19;102001.53;;;10.12;65.07
11987;BME280;6053;51.382;6.768;2023-04-05T00:58:49;102007.44;;;10.09;65.22
11987;BME280;6053;51.382;6.768;2023-04-05T01:01:20;102010.03;;;10.10;64.96
11987;BME280;6053;51.382;6.768;2023-04-05T01:03:51;102005.50;;;10.03;65.44
11987;BME280;6053;51.382;6.768;2023-04-05T01:06:33;102007.19;;;10.04;65.22
11987;BME280;6053;51.382;6.768;2023-04-05T01:09:08;101995.50;;;10.02;65.17
11987;BME280;6053;51.382;6.768;2023-04-05T01:11:40;101993.03;;;9.85;65.53
11987;BME280;6053;51.382;6.768;2023-04-05T01:14:09;101995.59;;;9.87;65.49
11987;BME280;6053;51.382;6.768;2023-04-05T01:16:38;101988.63;;;9.91;65.62
11987;BME280;6053;51.382;6.768;2023-04-05T01:19:06;101992.69;;;9.95;65.62
11987;BME280;6053;51.382;6.768;2023-04-05T01:22:09;101994.34;;;9.89;65.83
11987;BME280;6053;51.382;6.768;2023-04-05T01:25:09;101989.41;;;9.85;65.93
11987;BME280;6053;51.382;6.768;2023-04-05T01:28:01;101987.72;;;9.84;65.98
11987;BME280;6053;51.382;6.768;2023-04-05T01:30:43;101989.63;;;9.83;66.15
11987;BME280;6053;51.382;6.768;2023-04-05T01:33:19;101982.38;;;9.82;65.84
11987;BME280;6053;51.382;6.768;2023-04-05T01:35:57;101986.19;;;9.81;65.94
11987;BME280;6053;51.382;6.768;2023-04-05T01:38:27;101981.09;;;9.78;66.06
11987;BME280;6053;51.382;6.768;2023-04-05T01:40:56;101982.75;;;9.73;66.17
11987;BME280;6053;51.382;6.768;2023-04-05T01:43:25;101976.16;;;9.74;66.06
11987;BME280;6053;51.382;6.768;2023-04-05T01:45:54;101975.13;;;9.75;66.07
11987;BME280;6053;51.382;6.768;2023-04-05T01:48:23;101974.88;;;9.70;66.17
11987;BME280;6053;51.382;6.768;2023-04-05T01:50:52;101982.41;;;9.61;66.64
11987;BME280;6053;51.382;6.768;2023-04-05T01:53:20;101963.38;;;9.66;66.54
11987;BME280;6053;51.382;6.768;2023-04-05T01:55:48;101969.94;;;9.65;66.45
11987;BME280;6053;51.382;6.768;2023-04-05T01:58:17;101965.69;;;9.62;66.54
11987;BME280;6053;51.382;6.768;2023-04-05T02:00:45;101962.94;;;9.62;66.66
11987;BME280;6053;51.382;6.768;2023-04-05T02:03:15;101965.19;;;9.59;66.32
11987;BME280;6053;51.382;6.768;2023-04-05T02:05:44;101953.31;;;9.58;66.43
11987;BME280;6053;51.382;6.768;2023-04-05T02:08:13;101955.44;;;9.56;66.53
11987;BME280;6053;51.382;6.768;2023-04-05T02:10:42;101956.09;;;9.58;66.89
11987;BME280;6053;51.382;6.768;2023-04-05T02:13:11;101953.53;;;9.57;66.75
11987;BME280;6053;51.382;6.768;2023-04-05T02:15:39;101966.84;;;9.53;66.83
11987;BME280;6053;51.382;6.768;2023-04-05T02:18:08;101975.97;;;9.54;66.87
11987;BME280;6053;51.382;6.768;2023-04-05T02:20:38;101954.09;;;9.52;66.79
11987;BME280;6053;51.382;6.768;2023-04-05T02:23:08;101960.41;;;9.46;66.79
11987;BME280;6053;51.382;6.768;2023-04-05T02:25:36;101972.28;;;9.47;66.80
11987;BME280;6053;51.382;6.768;2023-04-05T02:28:05;101964.41;;;9.43;67.06
11987;BME280;6053;51.382;6.768;2023-04-05T02:30:33;101962.50;;;9.44;67.06
11987;BME280;6053;51.382;6.768;2023-04-05T02:33:02;101954.63;;;9.41;67.08
11987;BME280;6053;51.382;6.768;2023-04-05T02:35:31;101957.22;;;9.42;66.83
11987;BME280;6053;51.382;6.768;2023-04-05T02:38:01;101957.97;;;9.36;67.36
11987;BME280;6053;51.382;6.768;2023-04-05T02:40:31;101959.22;;;9.34;67.21
11987;BME280;6053;51.382;6.768;2023-04-05T02:43:00;101956.25;;;9.35;67.14
11987;BME280;6053;51.382;6.768;2023-04-05T02:45:29;101958.38;;;9.33;67.18
11987;BME280;6053;51.382;6.768;2023-04-05T02:47:58;101955.53;;;9.27;67.42
11987;BME280;6053;51.382;6.768;2023-04-05T02:50:26;101955.34;;;9.28;67.36
11987;BME280;6053;51.382;6.768;2023-04-05T02:52:55;101954.69;;;9.26;67.59
11987;BME280;6053;51.382;6.768;2023-04-05T02:55:25;101952.78;;;9.27;67.61
11987;BME280;6053;51.382;6.768;2023-04-05T02:57:58;101954.03;;;9.24;67.42
11987;BME280;6053;51.382;6.768;2023-04-05T03:00:27;101960.59;;;9.23;67.77
11987;BME280;6053;51.382;6.768;2023-04-05T03:02:56;101956.53;;;9.19;67.65
11987;BME280;6053;51.382;6.768;2023-04-05T03:05:25;101956.06;;;9.15;67.87
11987;BME280;6053;51.382;6.768;2023-04-05T03:07:53;101957.53;;;9.18;67.59
11987;BME280;6053;51.382;6.768;2023-04-05T03:10:23;101955.38;;;9.13;67.71
11987;BME280;6053;51.382;6.768;2023-04-05T03:12:52;101958.53;;;9.10;67.90
11987;BME280;6053;51.382;6.768;2023-04-05T03:15:20;101951.56;;;9.14;68.00
11987;BME280;6053;51.382;6.768;2023-04-05T03:17:49;101948.56;;;9.09;67.94
11987;BME280;6053;51.382;6.768;2023-04-05T03:20:18;101945.34;;;9.06;68.00
11987;BME280;6053;51.382;6.768;2023-04-05T03:22:46;101944.47;;;9.05;67.78
11987;BME280;6053;51.382;6.768;2023-04-05T03:25:15;101946.84;;;9.08;67.66
11987;BME280;6053;51.382;6.768;2023-04-05T03:27:45;101949.97;;;9.05;67.72
11987;BME280;6053;51.382;6.768;2023-04-05T03:30:13;101949.34;;;9.03;67.73
11987;BME280;6053;51.382;6.768;2023-04-05T03:32:42;101943.38;;;9.00;68.22
11987;BME280;6053;51.382;6.768;2023-04-05T03:35:10;101943.75;;;8.96;67.95
11987;BME280;6053;51.382;6.768;2023-04-05T03:37:39;101942.91;;;8.96;67.95
11987;BME280;6053;51.382;6.768;2023-04-05T03:40:08;101946.50;;;8.96;68.25
11987;BME280;6053;51.382;6.768;2023-04-05T03:42:37;101936.03;;;8.92;68.33
11987;BME280;6053;51.382;6.768;2023-04-05T03:45:08;101940.53;;;8.93;68.17
11987;BME280;6053;51.382;6.768;2023-04-05T03:47:36;101928.84;;;8.91;68.31
11987;BME280;6053;51.382;6.768;2023-04-05T03:50:06;101930.88;;;8.82;68.30
11987;BME280;6053;51.382;6.768;2023-04-05T03:52:35;101931.72;;;8.83;68.54
11987;BME280;6053;51.382;6.768;2023-04-05T03:55:04;101929.44;;;8.86;68.44
11987;BME280;6053;51.382;6.768;2023-04-05T03:57:33;101932.66;;;8.90;68.40
11987;BME280;6053;51.382;6.768;2023-04-05T04:00:02;101935.50;;;8.82;68.21
11987;BME280;6053;51.382;6.768;2023-04-05T04:02:43;101940.53;;;8.78;68.51
11987;BME280;6053;51.382;6.768;2023-04-05T04:05:13;101936.06;;;8.77;68.47
11987;BME280;6053;51.382;6.768;2023-04-05T04:07:42;101929.91;;;8.75;68.43
11987;BME280;6053;51.382;6.768;2023-04-05T04:10:13;101930.47;;;8.70;69.02
11987;BME280;6053;51.382;6.768;2023-04-05T04:12:44;101926.31;;;8.74;68.92
11987;BME280;6053;51.382;6.768;2023-04-05T04:15:12;101931.34;;;8.71;68.82
11987;BME280;6053;51.382;6.768;2023-04-05T04:17:42;101938.06;;;8.68;68.76
11987;BME280;6053;51.382;6.768;2023-04-05T04:20:11;101938.94;;;8.69;68.59
11987;BME280;6053;51.382;6.768;2023-04-05T04:22:41;101939.59;;;8.71;68.96
11987;BME280;6053;51.382;6.768;2023-04-05T04:25:10;101926.22;;;8.68;68.65
11987;BME280;6053;51.382;6.768;2023-04-05T04:27:42;101937.41;;;8.66;68.32
11987;BME280;6053;51.382;6.768;2023-04-05T04:30:14;101931.06;;;8.66;68.62
11987;BME280;6053;51.382;6.768;2023-04-05T04:32:43;101928.69;;;8.63;68.83
11987;BME280;6053;51.382;6.768;2023-04-05T04:35:18;101928.50;;;8.64;68.41
11987;BME280;6053;51.382;6.768;2023-04-05T04:37:55;101934.38;;;8.61;68.72
11987;BME280;6053;51.382;6.768;2023-04-05T04:40:27;101934.56;;;8.60;68.74
11987;BME280;6053;51.382;6.768;2023-04-05T04:42:58;101929.94;;;8.60;68.62
11987;BME280;6053;51.382;6.768;2023-04-05T04:45:29;101929.25;;;8.58;69.10
11987;BME280;6053;51.382;6.768;2023-04-05T04:48:03;101930.50;;;8.56;68.96
11987;BME280;6053;51.382;6.768;2023-04-05T04:50:32;101931.06;;;8.51;69.18
11987;BME280;6053;51.382;6.768;2023-04-05T04:53:01;101937.63;;;8.50;68.77
11987;BME280;6053;51.382;6.768;2023-04-05T04:55:29;101938.66;;;8.49;69.05
11987;BME280;6053;51.382;6.768;2023-04-05T04:57:59;101938.38;;;8.44;69.13
11987;BME280;6053;51.382;6.768;2023-04-05T05:00:28;101941.97;;;8.44;69.31
11987;BME280;6053;51.382;6.768;2023-04-05T05:02:57;101936.28;;;8.46;68.83
11987;BME280;6053;51.382;6.768;2023-04-05T05:05:27;101938.56;;;8.42;68.96
11987;BME280;6053;51.382;6.768;2023-04-05T05:07:55;101932.00;;;8.43;68.86
11987;BME280;6053;51.382;6.768;2023-04-05T05:10:24;101932.88;;;8.44;68.58
11987;BME280;6053;51.382;6.768;2023-04-05T05:12:52;101939.97;;;8.38;69.39
11987;BME280;6053;51.382;6.768;2023-04-05T05:15:21;101932.22;;;8.42;69.25
11987;BME280;6053;51.382;6.768;2023-04-05T05:17:49;101932.38;;;8.40;68.91
11987;BME280;6053;51.382;6.768;2023-04-05T05:20:20;101924.25;;;8.47;69.09
11987;BME280;6053;51.382;6.768;2023-04-05T05:22:50;101927.28;;;8.52;68.52
11987;BME280;6053;51.382;6.768;2023-04-05T05:25:19;101929.16;;;8.52;68.47
11987;BME280;6053;51.382;6.768;2023-04-05T05:27:48;101924.91;;;8.49;68.55
11987;BME280;6053;51.382;6.768;2023-04-05T05:30:17;101930.41;;;8.49;68.33
11987;BME280;6053;51.382;6.768;2023-04-05T05:32:46;101930.41;;;8.49;68.48
11987;BME280;6053;51.382;6.768;2023-04-05T05:35:15;101932.06;;;8.94;66.81
11987;BME280;6053;51.382;6.768;2023-04-05T05:37:44;101927.38;;;9.46;64.21
11987;BME280;6053;51.382;6.768;2023-04-05T05:40:14;101925.22;;;9.91;62.10
11987;BME280;6053;51.382;6.768;2023-04-05T05:42:42;101930.44;;;10.29;60.38
11987;BME280;6053;51.382;6.768;2023-04-05T05:45:11;101929.09;;;10.53;59.27
11987;BME280;6053;51.382;6.768;2023-04-05T05:47:39;101913.53;;;10.73;58.25
11987;BME280;6053;51.382;6.768;2023-04-05T05:50:09;101926.34;;;10.94;57.62
11987;BME280;6053;51.382;6.768;2023-04-05T05:52:38;101927.03;;;11.16;56.48
11987;BME280;6053;51.382;6.768;2023-04-05T05:55:07;101939.63;;;11.32;55.97
11987;BME280;6053;51.382;6.768;2023-04-05T05:57:37;101935.84;;;11.46;55.25
11987;BME280;6053;51.382;6.768;2023-04-05T06:00:06;101937.78;;;11.59;54.65
11987;BME280;6053;51.382;6.768;2023-04-05T06:02:36;101937.63;;;11.74;54.17
11987;BME280;6053;51.382;6.768;2023-04-05T06:05:05;101931.47;;;11.92;53.87
11987;BME280;6053;51.382;6.768;2023-04-05T06:07:35;101937.63;;;12.07;52.99
11987;BME280;6053;51.382;6.768;2023-04-05T06:10:05;101945.72;;;12.22;52.63
11987;BME280;6053;51.382;6.768;2023-04-05T06:12:36;101934.63;;;12.35;51.99
11987;BME280;6053;51.382;6.768;2023-04-05T06:15:05;101933.78;;;12.48;51.97
11987;BME280;6053;51.382;6.768;2023-04-05T06:17:34;101935.22;;;12.57;51.76
11987;BME280;6053;51.382;6.768;2023-04-05T06:20:08;101939.69;;;12.71;51.13
11987;BME280;6053;51.382;6.768;2023-04-05T06:22:39;101933.00;;;12.92;50.48
11987;BME280;6053;51.382;6.768;2023-04-05T06:25:08;101942.94;;;13.07;50.00
11987;BME280;6053;51.382;6.768;2023-04-05T06:27:40;101937.56;;;13.18;49.57
11987;BME280;6053;51.382;6.768;2023-04-05T06:30:09;101934.75;;;13.32;49.01
11987;BME280;6053;51.382;6.768;2023-04-05T06:32:38;101935.13;;;13.42;48.64
11987;BME280;6053;51.382;6.768;2023-04-05T06:35:07;101938.75;;;13.42;47.72
11987;BME280;6053;51.382;6.768;2023-04-05T06:37:36;101936.16;;;13.48;47.93
11987;BME280;6053;51.382;6.768;2023-04-05T06:40:06;101937.06;;;13.73;47.89
11987;BME280;6053;51.382;6.768;2023-04-05T06:42:34;101945.91;;;13.88;47.49
11987;BME280;6053;51.382;6.768;2023-04-05T06:45:05;101944.28;;;14.06;46.90
11987;BME280;6053;51.382;6.768;2023-04-05T06:47:34;101940.94;;;14.22;46.51
11987;BME280;6053;51.382;6.768;2023-04-05T06:50:04;101938.28;;;14.09;46.40
11987;BME280;6053;51.382;6.768;2023-04-05T06:52:33;101936.25;;;13.91;46.17
11987;BME280;6053;51.382;6.768;2023-04-05T06:55:02;101939.84;;;14.23;45.86
11987;BME280;6053;51.382;6.768;2023-04-05T06:57:31;101927.63;;;14.06;45.74
11987;BME280;6053;51.382;6.768;2023-04-05T06:59:59;101930.94;;;14.14;46.22
11987;BME280;6053;51.382;6.768;2023-04-05T07:02:29;101929.00;;;14.40;45.89
11987;BME280;6053;51.382;6.768;2023-04-05T07:05:01;101925.88;;;14.55;45.32
11987;BME280;6053;51.382;6.768;2023-04-05T07:07:32;101928.78;;;13.35;46.97
11987;BME280;6053;51.382;6.768;2023-04-05T07:10:01;101932.00;;;13.32;45.54
11987;BME280;6053;51.382;6.768;2023-04-05T07:12:29;101915.75;;;13.67;45.95
11987;BME280;6053;51.382;6.768;2023-04-05T07:14:59;101926.81;;;14.24;45.46
11987;BME280;6053;51.382;6.768;2023-04-05T07:17:29;101920.84;;;13.70;45.57
11987;BME280;6053;51.382;6.768;2023-04-05T07:19:58;101918.44;;;13.80;46.39
11987;BME280;6053;51.382;6.768;2023-04-05T07:22:27;101927.06;;;12.82;45.05
11987;BME280;6053;51.382;6.768;2023-04-05T07:24:55;101923.13;;;14.05;43.64
11987;BME280;6053;51.382;6.768;2023-04-05T07:27:24;101920.56;;;13.85;46.35
11987;BME280;6053;51.382;6.768;2023-04-05T07:29:53;101919.06;;;13.12;46.90
11987;BME280;6053;51.382;6.768;2023-04-05T07:32:21;101912.38;;;13.65;45.80
11987;BME280;6053;51.382;6.768;2023-04-05T07:34:51;101913.63;;;13.94;42.04
11987;BME280;6053;51.382;6.768;2023-04-05T07:37:20;101919.22;;;13.17;45.13
11987;BME280;6053;51.382;6.768;2023-04-05T07:39:49;101917.63;;;12.18;42.57
11987;BME280;6053;51.382;6.768;2023-04-05T07:42:17;101921.31;;;13.35;48.02
11987;BME280;6053;51.382;6.768;2023-04-05T07:44:47;101915.06;;;14.22;40.48
11987;BME280;6053;51.382;6.768;2023-04-05T07:47:16;101915.00;;;14.53;39.15
11987;BME280;6053;51.382;6.768;2023-04-05T07:49:44;101914.88;;;13.98;45.57
11987;BME280;6053;51.382;6.768;2023-04-05T07:52:14;101917.16;;;14.51;42.27
11987;BME280;6053;51.382;6.768;2023-04-05T07:54:43;101922.06;;;13.81;41.58
11987;BME280;6053;51.382;6.768;2023-04-05T07:57:15;101924.28;;;14.41;45.16
11987;BME280;6053;51.382;6.768;2023-04-05T07:59:44;101923.19;;;13.98;37.91
11987;BME280;6053;51.382;6.768;2023-04-05T08:02:14;101923.13;;;13.10;37.08
11987;BME280;6053;51.382;6.768;2023-04-05T08:04:42;101922.66;;;14.58;43.40
11987;BME280;6053;51.382;6.768;2023-04-05T08:07:11;101925.47;;;13.83;45.46
11987;BME280;6053;51.382;6.768;2023-04-05T08:09:41;101926.34;;;14.27;41.54
11987;BME280;6053;51.382;6.768;2023-04-05T08:12:10;101927.56;;;15.11;39.43
11987;BME280;6053;51.382;6.768;2023-04-05T08:14:38;101924.97;;;14.61;37.98
11987;BME280;6053;51.382;6.768;2023-04-05T08:17:07;101927.00;;;14.04;39.47
11987;BME280;6053;51.382;6.768;2023-04-05T08:19:35;101917.56;;;15.40;43.35
11987;BME280;6053;51.382;6.768;2023-04-05T08:22:04;101919.22;;;13.87;39.96
11987;BME280;6053;51.382;6.768;2023-04-05T08:24:32;101920.41;;;14.23;38.83
11987;BME280;6053;51.382;6.768;2023-04-05T08:27:02;101917.47;;;14.61;43.78
11987;BME280;6053;51.382;6.768;2023-04-05T08:29:31;101919.50;;;14.04;41.89
11987;BME280;6053;51.382;6.768;2023-04-05T08:31:59;101914.88;;;15.33;38.34
11987;BME280;6053;51.382;6.768;2023-04-05T08:34:28;101921.72;;;15.49;38.91
11987;BME280;6053;51.382;6.768;2023-04-05T08:36:57;101920.50;;;15.99;42.12
11987;BME280;6053;51.382;6.768;2023-04-05T08:39:27;101919.69;;;16.10;39.18
11987;BME280;6053;51.382;6.768;2023-04-05T08:42:03;101919.69;;;16.10;40.81
11987;BME280;6053;51.382;6.768;2023-04-05T08:44:36;101918.66;;;14.72;43.27
11987;BME280;6053;51.382;6.768;2023-04-05T08:47:05;101921.34;;;15.57;41.41
11987;BME280;6053;51.382;6.768;2023-04-05T08:49:36;101916.13;;;15.91;41.23
11987;BME280;6053;51.382;6.768;2023-04-05T08:52:05;101915.41;;;15.54;36.98
11987;BME280;6053;51.382;6.768;2023-04-05T08:54:34;101910.59;;;15.01;36.13
11987;BME280;6053;51.382;6.768;2023-04-05T08:57:05;101916.25;;;12.61;36.32
11987;BME280;6053;51.382;6.768;2023-04-05T08:59:37;101911.09;;;13.61;37.72
11987;BME280;6053;51.382;6.768;2023-04-05T09:02:13;101908.78;;;14.76;45.06
11987;BME280;6053;51.382;6.768;2023-04-05T09:04:43;101912.94;;;14.85;37.10
11987;BME280;6053;51.382;6.768;2023-04-05T09:07:14;101916.66;;;16.00;42.38
11987;BME280;6053;51.382;6.768;2023-04-05T09:09:47;101906.13;;;16.25;37.13
11987;BME280;6053;51.382;6.768;2023-04-05T09:12:20;101911.44;;;16.15;36.24
11987;BME280;6053;51.382;6.768;2023-04-05T09:14:49;101902.56;;;16.65;41.66
11987;BME280;6053;51.382;6.768;2023-04-05T09:17:18;101905.22;;;15.78;35.78
11987;BME280;6053;51.382;6.768;2023-04-05T09:19:46;101902.56;;;15.41;32.76
11987;BME280;6053;51.382;6.768;2023-04-05T09:22:16;101892.28;;;14.20;41.99
11987;BME280;6053;51.382;6.768;2023-04-05T09:24:46;101897.22;;;12.84;37.81
11987;BME280;6053;51.382;6.768;2023-04-05T09:27:17;101904.00;;;13.40;42.13
11987;BME280;6053;51.382;6.768;2023-04-05T09:29:47;101884.22;;;14.92;43.18
11987;BME280;6053;51.382;6.768;2023-04-05T09:32:16;101888.34;;;15.19;39.09
11987;BME280;6053;51.382;6.768;2023-04-05T09:34:46;101891.41;;;15.29;41.63
11987;BME280;6053;51.382;6.768;2023-04-05T09:37:18;101886.16;;;14.54;37.48
11987;BME280;6053;51.382;6.768;2023-04-05T09:39:48;101894.25;;;12.86;36.14
11987;BME280;6053;51.382;6.768;2023-04-05T09:42:20;101886.00;;;14.06;40.16
11987;BME280;6053;51.382;6.768;2023-04-05T09:44:51;101886.16;;;14.54;36.37
11987;BME280;6053;51.382;6.768;2023-04-05T09:47:22;101884.50;;;15.32;37.55
11987;BME280;6053;51.382;6.768;2023-04-05T09:49:52;101888.66;;;15.41;33.91
11987;BME280;6053;51.382;6.768;2023-04-05T09:52:22;101890.84;;;15.81;37.99
11987;BME280;6053;51.382;6.768;2023-04-05T09:54:52;101881.41;;;15.40;42.61
11987;BME280;6053;51.382;6.768;2023-04-05T09:57:23;101892.00;;;14.46;34.96
11987;BME280;6053;51.382;6.768;2023-04-05T09:59:54;101889.13;;;15.08;41.75
11987;BME280;6053;51.382;6.768;2023-04-05T10:02:23;101886.13;;;15.40;39.83
11987;BME280;6053;51.382;6.768;2023-04-05T10:04:52;101885.38;;;14.84;33.73
11987;BME280;6053;51.382;6.768;2023-04-05T10:07:20;101882.44;;;13.49;35.31
11987;BME280;6053;51.382;6.768;2023-04-05T10:09:49;101881.53;;;14.67;38.58
11987;BME280;6053;51.382;6.768;2023-04-05T10:12:24;101882.41;;;15.16;33.74
11987;BME280;6053;51.382;6.768;2023-04-05T10:14:54;101877.66;;;15.88;40.18
11987;BME280;6053;51.382;6.768;2023-04-05T10:17:26;101873.66;;;15.42;37.10
11987;BME280;6053;51.382;6.768;2023-04-05T10:20:05;101868.03;;;14.52;37.75
11987;BME280;6053;51.382;6.768;2023-04-05T10:22:39;101864.00;;;15.03;43.23
11987;BME280;6053;51.382;6.768;2023-04-05T10:25:19;101862.44;;;14.89;36.49
11987;BME280;6053;51.382;6.768;2023-04-05T10:27:54;101853.72;;;15.45;35.33
11987;BME280;6053;51.382;6.768;2023-04-05T10:30:28;101856.41;;;14.92;41.01
11987;BME280;6053;51.382;6.768;2023-04-05T10:33:06;101859.53;;;13.85;36.50
11987;BME280;6053;51.382;6.768;2023-04-05T10:35:48;101848.53;;;14.15;45.12
11987;BME280;6053;51.382;6.768;2023-04-05T10:38:22;101850.84;;;13.75;36.95
11987;BME280;6053;51.382;6.768;2023-04-05T10:40:54;101849.88;;;13.87;36.19
11987;BME280;6053;51.382;6.768;2023-04-05T10:43:26;101848.38;;;15.02;42.03
11987;BME280;6053;51.382;6.768;2023-04-05T10:45:56;101846.31;;;14.05;37.77
11987;BME280;6053;51.382;6.768;2023-04-05T10:48:33;101847.81;;;14.01;34.92
11987;BME280;6053;51.382;6.768;2023-04-05T10:51:04;101847.75;;;14.70;42.95
11987;BME280;6053;51.382;6.768;2023-04-05T10:53:33;101843.81;;;13.47;35.45
11987;BME280;6053;51.382;6.768;2023-04-05T10:56:05;101840.78;;;13.55;35.77
11987;BME280;6053;51.382;6.768;2023-04-05T10:58:36;101838.63;;;14.44;39.72
11987;BME280;6053;51.382;6.768;2023-04-05T11:01:07;101830.16;;;14.57;35.54
11987;BME280;6053;51.382;6.768;2023-04-05T11:03:47;101829.41;;;13.88;37.72
11987;BME280;6053;51.382;6.768;2023-04-05T11:06:20;101837.94;;;13.37;37.02
11987;BME280;6053;51.382;6.768;2023-04-05T11:08:52;101834.47;;;13.48;37.68
11987;BME280;6053;51.382;6.768;2023-04-05T11:11:22;101825.97;;;14.48;37.81
11987;BME280;6053;51.382;6.768;2023-04-05T11:13:55;101819.41;;;14.24;33.45
11987;BME280;6053;51.382;6.768;2023-04-05T11:16:38;101823.03;;;14.06;36.13
11987;BME280;6053;51.382;6.768;2023-04-05T11:19:07;101817.66;;;14.30;39.87
11987;BME280;6053;51.382;6.768;2023-04-05T11:21:36;101812.53;;;14.45;38.77
11987;BME280;6053;51.382;6.768;2023-04-05T11:24:06;101815.81;;;14.60;36.59
11987;BME280;6053;51.382;6.768;2023-04-05T11:26:55;101802.78;;;14.61;46.28
11987;BME280;6053;51.382;6.768;2023-04-05T11:29:47;101812.81;;;13.57;44.69
11987;BME280;6053;51.382;6.768;2023-04-05T11:32:21;101811.00;;;14.31;42.81
11987;BME280;6053;51.382;6.768;2023-04-05T11:35:00;101810.72;;;14.39;45.08
11987;BME280;6053;51.382;6.768;2023-04-05T11:37:54;101802.41;;;13.20;36.57
11987;BME280;6053;51.382;6.768;2023-04-05T11:40:27;101811.09;;;13.31;41.33
11987;BME280;6053;51.382;6.768;2023-04-05T11:43:02;101813.19;;;13.42;43.53
11987;BME280;6053;51.382;6.768;2023-04-05T11:45:35;101803.81;;;13.61;43.96
11987;BME280;6053;51.382;6.768;2023-04-05T11:48:07;101805.91;;;12.78;44.20
11987;BME280;6053;51.382;6.768;2023-04-05T11:50:38;101802.19;;;12.52;38.32
11987;BME280;6053;51.382;6.768;2023-04-05T11:53:09;101798.88;;;13.07;51.79
11987;BME280;6053;51.382;6.768;2023-04-05T11:55:39;101791.25;;;13.02;48.81
11987;BME280;6053;51.382;6.768;2023-04-05T11:58:15;101798.69;;;13.40;38.57
11987;BME280;6053;51.382;6.768;2023-04-05T12:00:55;101787.31;;;13.16;36.59
11987;BME280;6053;51.382;6.768;2023-04-05T12:03:25;101786.63;;;11.93;47.43
11987;BME280;6053;51.382;6.768;2023-04-05T12:05:57;101785.28;;;12.67;42.22
11987;BME280;6053;51.382;6.768;2023-04-05T12:08:38;101777.00;;;12.98;39.00
11987;BME280;6053;51.382;6.768;2023-04-05T12:11:08;101781.31;;;12.94;39.49
11987;BME280;6053;51.382;6.768;2023-04-05T12:13:38;101769.75;;;12.66;39.82
11987;BME280;6053;51.382;6.768;2023-04-05T12:16:08;101763.44;;;12.52;42.49
11987;BME280;6053;51.382;6.768;2023-04-05T12:18:37;101767.25;;;12.89;34.22
11987;BME280;6053;51.382;6.768;2023-04-05T12:21:08;101760.84;;;13.27;39.81
11987;BME280;6053;51.382;6.768;2023-04-05T12:23:36;101765.19;;;13.10;33.90
11987;BME280;6053;51.382;6.768;2023-04-05T12:26:06;101756.00;;;12.84;33.14
11987;BME280;6053;51.382;6.768;2023-04-05T12:28:51;101755.91;;;12.21;34.66
11987;BME280;6053;51.382;6.768;2023-04-05T12:31:37;101755.25;;;13.02;38.30
11987;BME280;6053;51.382;6.768;2023-04-05T12:34:06;101757.78;;;13.04;40.33
11987;BME280;6053;51.382;6.768;2023-04-05T12:36:36;101765.47;;;13.33;36.72
11987;BME280;6053;51.382;6.768;2023-04-05T12:39:06;101762.03;;;12.74;32.94
11987;BME280;6053;51.382;6.768;2023-04-05T12:41:35;101756.13;;;12.96;42.93
11987;BME280;6053;51.382;6.768;2023-04-05T12:44:13;101748.66;;;13.53;43.32
11987;BME280;6053;51.382;6.768;2023-04-05T12:46:44;101742.06;;;12.97;33.91
11987;BME280;6053;51.382;6.768;2023-04-05T12:49:16;101729.50;;;13.52;37.15
11987;BME280;6053;51.382;6.768;2023-04-05T12:51:46;101733.50;;;13.31;35.21
11987;BME280;6053;51.382;6.768;2023-04-05T12:54:20;101730.81;;;13.24;37.45
11987;BME280;6053;51.382;6.768;2023-04-05T12:56:50;101729.19;;;13.60;35.19
11987;BME280;6053;51.382;6.768;2023-04-05T12:59:19;101725.25;;;13.24;40.88
11987;BME280;6053;51.382;6.768;2023-04-05T13:01:49;101720.94;;;13.03;36.43
11987;BME280;6053;51.382;6.768;2023-04-05T13:04:18;101716.28;;;13.29;38.13
11987;BME280;6053;51.382;6.768;2023-04-05T13:06:49;101713.81;;;14.01;44.11
11987;BME280;6053;51.382;6.768;2023-04-05T13:09:18;101709.34;;;13.63;39.55
11987;BME280;6053;51.382;6.768;2023-04-05T13:11:46;101720.28;;;13.08;31.97
11987;BME280;6053;51.382;6.768;2023-04-05T13:14:15;101709.19;;;13.08;33.25
11987;BME280;6053;51.382;6.768;2023-04-05T13:16:44;101704.84;;;13.43;41.19
11987;BME280;6053;51.382;6.768;2023-04-05T13:19:14;101693.31;;;13.21;34.41
11987;BME280;6053;51.382;6.768;2023-04-05T13:21:42;101697.22;;;12.12;34.52
11987;BME280;6053;51.382;6.768;2023-04-05T13:24:11;101691.78;;;11.72;33.76
11987;BME280;6053;51.382;6.768;2023-04-05T13:26:39;101688.25;;;12.55;39.76